Time;durP1;ratioP1;P1;durP2;ratioP2;P2;SDS_P1;SDS_P2;PMS_P1;PMS_P2;Temp;Humidity;BMP_temperature;BMP_pressure;BME280_temperature;BME280_humidity;BME280_pressure;Samples;Min_cycle;Max_cycle;Signal;HPM_P1;HPM_P2
2022/05/29 00:00:05;;;;;;;;;3.75;3.75;;;;;16.11;40.70;101368.16;5114228;27;45094;-72
2022/05/29 00:02:30;;;;;;;;;2.67;1.33;;;;;16.17;40.37;101379.03;5114448;27;44999;-72
2022/05/29 00:04:55;;;;;;;;;1.00;1.00;;;;;16.15;40.78;101380.78;5114531;27;45702;-77
2022/05/29 00:07:21;;;;;;;;;1.67;1.67;;;;;16.09;40.70;101378.94;5120902;27;46715;-74
2022/05/29 00:09:48;;;;;;;;;1.67;0.33;;;;;16.07;40.98;101380.69;5118032;27;45070;-74
2022/05/29 00:12:14;;;;;;;;;1.00;1.00;;;;;16.03;40.67;101385.13;5120598;27;45129;-76
2022/05/29 00:14:42;;;;;;;;;2.25;2.00;;;;;16.00;41.14;101373.41;5115097;27;45258;-72
2022/05/29 00:17:08;;;;;;;;;3.00;1.67;;;;;16.00;41.08;101371.63;5113408;27;44965;-71
2022/05/29 00:19:34;;;;;;;;;1.00;1.00;;;;;16.00;40.77;101376.09;5124586;27;45082;-74
2022/05/29 00:22:01;;;;;;;;;1.67;1.67;;;;;15.76;40.92;101338.94;5133890;27;45069;-72
2022/05/29 00:24:27;;;;;;;;;1.00;1.00;;;;;15.96;41.44;101366.16;5133579;27;45048;-76
2022/05/29 00:26:54;;;;;;;;;1.00;1.00;;;;;15.92;40.99;101350.81;5114452;27;46544;-75
2022/05/29 00:29:20;;;;;;;;;1.33;1.00;;;;;16.00;40.81;101368.94;5121814;27;45099;-74
2022/05/29 00:31:45;;;;;;;;;2.33;2.33;;;;;15.86;41.12;101350.75;5112692;27;45137;-76
2022/05/29 00:34:11;;;;;;;;;1.00;0.33;;;;;15.75;41.13;101353.25;5118138;27;45137;-72
2022/05/29 00:36:40;;;;;;;;;2.00;2.00;;;;;15.78;41.45;101375.78;5113381;27;46892;-79
2022/05/29 00:39:07;;;;;;;;;1.33;1.33;;;;;15.74;41.62;101367.59;5122662;27;45266;-78
2022/05/29 00:41:35;;;;;;;;;0.67;0.67;;;;;15.70;41.85;101358.56;5118501;27;45915;-74
2022/05/29 00:44:12;;;;;;;;;2.00;1.67;;;;;15.72;42.11;101375.63;5109457;27;45249;-79
2022/05/29 00:46:39;;;;;;;;;3.00;0.67;;;;;15.66;41.66;101360.31;5113406;27;45677;-77
2022/05/29 00:49:06;;;;;;;;;2.00;2.00;;;;;15.55;41.94;101351.16;5112519;27;45057;-74
2022/05/29 00:51:36;;;;;;;;;2.00;2.00;;;;;15.52;42.15;101358.28;5113688;27;45111;-75
2022/05/29 00:54:04;;;;;;;;;1.33;1.33;;;;;15.56;42.23;101365.50;5116059;27;45234;-73
2022/05/29 00:56:29;;;;;;;;;2.00;2.00;;;;;15.36;42.13;101332.88;5114332;27;45363;-76
2022/05/29 00:58:57;;;;;;;;;1.33;1.33;;;;;15.59;42.01;101363.78;5114653;27;45451;-75
2022/05/29 01:01:23;;;;;;;;;0.33;0.33;;;;;15.27;42.08;101306.72;5113644;27;45014;-76
2022/05/29 01:03:48;;;;;;;;;3.00;2.00;;;;;15.48;42.05;101347.44;5113482;27;45174;-72
2022/05/29 01:06:14;;;;;;;;;3.33;1.33;;;;;15.41;42.29;101350.00;5129950;27;47984;-71
2022/05/29 01:08:39;;;;;;;;;1.00;1.00;;;;;15.20;42.15;101313.81;5119601;27;45217;-79
2022/05/29 01:11:20;;;;;;;;;2.00;2.00;;;;;15.35;42.94;101366.09;5112838;27;44879;-76
2022/05/29 01:14:00;;;;;;;;;1.00;1.00;;;;;15.27;42.93;101355.19;5113096;27;45038;-75
2022/05/29 01:16:50;;;;;;;;;2.00;2.00;;;;;15.30;42.91;101366.91;5118832;27;45562;-72
2022/05/29 01:19:40;;;;;;;;;0.00;0.00;;;;;15.06;43.05;101336.88;5127955;27;45240;-74
2022/05/29 01:22:08;;;;;;;;;1.00;1.00;;;;;15.23;43.02;101356.03;5117833;27;45941;-75
2022/05/29 01:24:54;;;;;;;;;6.00;5.50;;;;;15.21;43.43;101355.06;5110575;27;45589;-73
2022/05/29 01:27:57;;;;;;;;;3.00;3.00;;;;;15.21;43.25;101352.38;5125559;27;46230;-75
2022/05/29 01:30:25;;;;;;;;;3.00;0.00;;;;;15.20;43.49;101351.47;5112138;27;45176;-75
2022/05/29 01:33:17;;;;;;;;;3.00;1.00;;;;;15.20;43.75;101340.72;5119131;27;45146;-74
2022/05/29 01:35:49;;;;;;;;;2.00;0.00;;;;;15.06;43.58;101324.34;5128740;27;45529;-78
2022/05/29 01:38:26;;;;;;;;;4.00;2.00;;;;;15.16;43.77;101344.22;5132791;27;45108;-77
2022/05/29 01:41:03;;;;;;;;;3.00;1.00;;;;;15.08;43.98;101329.75;5132382;27;45099;-76
2022/05/29 01:43:44;;;;;;;;;3.25;1.75;;;;;14.91;44.23;101306.16;5132822;27;44969;-73
2022/05/29 01:46:22;;;;;;;;;2.00;2.00;;;;;14.95;44.41;101325.00;5127506;27;45349;-76
2022/05/29 01:49:13;;;;;;;;;0.00;0.00;;;;;15.06;44.90;101336.88;5119748;27;45064;-79
2022/05/29 01:51:48;;;;;;;;;3.50;2.50;;;;;14.99;44.74;101341.25;5111806;27;45077;-76
2022/05/29 01:54:30;;;;;;;;;2.00;2.00;;;;;14.89;45.04;101333.91;5111581;27;44862;-71
2022/05/29 01:57:03;;;;;;;;;1.00;1.00;;;;;14.68;45.02;101305.75;5126385;27;45199;-78
2022/05/29 01:59:44;;;;;;;;;1.00;1.00;;;;;14.82;45.49;101331.97;5111014;27;46470;-78
2022/05/29 02:02:14;;;;;;;;;2.00;0.00;;;;;14.85;45.33;101332.94;5111403;27;45921;-79
2022/05/29 02:04:46;;;;;;;;;0.67;0.67;;;;;14.84;45.04;101330.22;5114263;27;44972;-74
2022/05/29 02:10:15;;;;;;;;;1.75;1.75;;;;;14.76;45.69;101332.75;5130539;27;45191;-74
2022/05/29 02:12:50;;;;;;;;;0.33;0.33;;;;;14.82;45.53;101329.28;5126656;27;44875;-73
2022/05/29 02:15:31;;;;;;;;;5.00;2.00;;;;;14.13;45.68;101218.63;5110660;27;45431;-76
2022/05/29 02:18:01;;;;;;;;;1.33;1.00;;;;;14.73;45.92;101327.31;5130679;27;45119;-75
2022/05/29 02:20:33;;;;;;;;;1.00;1.00;;;;;14.76;45.65;101331.84;5125473;27;46055;-75
2022/05/29 02:23:08;;;;;;;;;0.67;0.67;;;;;14.70;46.46;101325.50;5113832;27;45106;-75
2022/05/29 02:25:36;;;;;;;;;2.50;1.00;;;;;14.68;46.05;101323.63;5127098;27;45220;-75
2022/05/29 02:28:10;;;;;;;;;4.00;1.33;;;;;14.68;46.05;101326.31;5132992;27;45058;-73
2022/05/29 02:30:48;;;;;;;;;7.25;6.00;;;;;14.41;46.48;101275.59;5132478;27;45566;-76
2022/05/29 02:33:16;;;;;;;;;5.00;2.75;;;;;14.62;46.44;101327.13;5132954;27;45022;-77
2022/05/29 02:36:20;;;;;;;;;1.00;1.00;;;;;14.60;46.60;101317.22;5135757;27;45254;-73
2022/05/29 02:39:09;;;;;;;;;2.33;2.33;;;;;14.59;47.04;101310.00;5122507;27;45171;-73
2022/05/29 02:42:22;;;;;;;;;2.67;1.33;;;;;14.61;47.08;101310.97;5115949;27;46130;-75
2022/05/29 02:45:02;;;;;;;;;2.00;1.00;;;;;14.59;46.60;101310.00;5112955;27;45035;-76
2022/05/29 02:47:51;;;;;;;;;4.00;3.00;;;;;14.51;47.18;101308.06;5115347;27;45131;-74
2022/05/29 02:50:25;;;;;;;;;4.00;3.00;;;;;14.28;47.06;101271.75;5125815;27;45514;-76
2022/05/29 02:52:56;;;;;;;;;1.00;1.00;;;;;14.42;46.92;101290.84;5129896;27;45700;-73
2022/05/29 02:55:23;;;;;;;;;1.00;1.00;;;;;14.48;47.24;101309.78;5135385;27;45296;-77
2022/05/29 02:57:56;;;;;;;;;1.00;1.00;;;;;14.43;47.16;101314.16;5135357;27;45169;-77
2022/05/29 03:00:21;;;;;;;;;2.33;2.00;;;;;14.33;47.59;101295.16;5134775;27;45111;-76
2022/05/29 03:03:05;;;;;;;;;2.33;2.33;;;;;14.35;47.65;101304.19;5131054;27;45793;-75
2022/05/29 03:05:49;;;;;;;;;2.00;2.00;;;;;14.33;47.32;101299.63;5111444;27;45009;-76
2022/05/29 03:08:15;;;;;;;;;2.00;1.00;;;;;14.28;47.51;101301.34;5114359;27;45298;-75
2022/05/29 03:10:48;;;;;;;;;3.00;1.33;;;;;14.07;47.70;101274.91;5115109;27;45126;-74
2022/05/29 03:13:32;;;;;;;;;1.00;1.00;;;;;14.29;47.68;101298.69;5127481;27;45818;-73
2022/05/29 03:16:14;;;;;;;;;3.67;1.00;;;;;14.04;47.92;101270.41;5129424;27;45521;-75
2022/05/29 03:18:53;;;;;;;;;1.00;1.00;;;;;14.24;47.86;101294.06;5116958;27;45134;-71
2022/05/29 03:21:24;;;;;;;;;0.67;0.67;;;;;14.31;47.00;101296.91;5113068;27;44993;-77
2022/05/29 03:24:05;;;;;;;;;0.33;0.33;;;;;14.27;47.44;101295.06;5105498;27;45332;-77
2022/05/29 03:26:59;;;;;;;;;3.33;2.00;;;;;14.16;48.34;101285.88;5116777;27;45194;-75
2022/05/29 03:29:35;;;;;;;;;4.00;3.00;;;;;14.23;48.11;101305.72;5125766;27;45112;-74
2022/05/29 03:32:02;;;;;;;;;2.00;1.00;;;;;14.18;48.27;101293.06;5132390;27;45377;-74
2022/05/29 03:34:28;;;;;;;;;1.00;1.00;;;;;13.84;48.36;101235.03;5132835;27;46585;-73
2022/05/29 03:36:53;;;;;;;;;1.67;1.67;;;;;13.91;48.43;101241.44;5131629;27;44892;-77
2022/05/29 03:39:20;;;;;;;;;0.67;0.67;;;;;13.90;48.36;101248.63;5114131;27;45107;-75
2022/05/29 03:41:49;;;;;;;;;1.67;1.67;;;;;14.12;48.58;101294.72;5115261;27;45026;-74
2022/05/29 03:44:18;;;;;;;;;1.00;1.00;;;;;14.12;48.15;101292.03;5125497;27;45428;-75
2022/05/29 03:46:44;;;;;;;;;3.00;1.33;;;;;14.02;48.21;101277.50;5134834;27;45062;-72
2022/05/29 03:49:15;;;;;;;;;3.50;3.00;;;;;14.07;48.48;101286.56;5134564;27;45080;-79
2022/05/29 03:51:40;;;;;;;;;1.67;1.33;;;;;14.10;48.72;101291.09;5115813;27;45170;-73
2022/05/29 03:54:06;;;;;;;;;2.33;2.00;;;;;13.79;48.30;101248.41;5113687;27;45116;-75
2022/05/29 03:56:32;;;;;;;;;5.00;1.00;;;;;13.80;49.03;101250.19;5113964;27;45062;-73
2022/05/29 03:58:57;;;;;;;;;4.00;1.50;;;;;13.95;48.87;101272.91;5101783;27;45458;-77
2022/05/29 04:01:23;;;;;;;;;2.33;2.00;;;;;14.05;49.00;101290.13;5108976;27;45374;-73
2022/05/29 04:03:50;;;;;;;;;6.75;4.00;;;;;13.95;48.59;101279.16;5113891;27;46165;-78
2022/05/29 04:06:16;;;;;;;;;3.00;2.00;;;;;13.97;49.51;101288.19;5114947;27;45311;-76
2022/05/29 04:14:09;;;;;;;;;2.00;2.00;;;;;13.86;49.73;101284.34;5126542;27;44910;-78
2022/05/29 04:16:34;;;;;;;;;6.00;3.25;;;;;13.86;49.41;101283.44;5133206;27;45092;-73
2022/05/29 04:19:00;;;;;;;;;6.50;6.50;;;;;13.67;49.30;101250.81;5118635;27;45283;-75
2022/05/29 04:21:25;;;;;;;;;3.75;1.25;;;;;13.81;49.45;101286.94;5118854;27;45072;-74
2022/05/29 04:23:51;;;;;;;;;1.50;1.25;;;;;13.61;49.20;101253.34;5112850;27;46315;-73
2022/05/29 04:26:18;;;;;;;;;0.67;0.33;;;;;13.80;49.50;101278.84;5124674;27;45186;-75
2022/05/29 04:28:44;;;;;;;;;3.00;1.50;;;;;13.52;49.47;101229.91;5131387;27;45244;-73
2022/05/29 04:31:10;;;;;;;;;3.00;3.00;;;;;13.79;48.93;101280.63;5128038;27;45225;-78
2022/05/29 04:33:35;;;;;;;;;2.00;2.00;;;;;13.87;49.37;101285.25;5093807;27;47049;-73
2022/05/29 04:36:02;;;;;;;;;4.00;2.50;;;;;13.90;49.45;101279.94;5111434;27;45093;-73
2022/05/29 04:38:27;;;;;;;;;3.00;3.00;;;;;13.92;49.69;101279.09;5111173;27;44912;-76
2022/05/29 04:40:54;;;;;;;;;2.75;2.00;;;;;13.90;49.32;101286.22;5111955;27;45342;-76
2022/05/29 04:43:20;;;;;;;;;2.00;2.00;;;;;13.91;49.67;101271.00;5114772;27;45472;-77
2022/05/29 04:45:51;;;;;;;;;2.50;1.00;;;;;13.91;49.78;101276.38;5113993;27;45078;-75
2022/05/29 04:48:16;;;;;;;;;3.25;2.00;;;;;13.81;49.59;101272.63;5109176;27;45286;-73
2022/05/29 04:50:42;;;;;;;;;4.00;3.00;;;;;13.89;49.95;101280.81;5104734;27;45332;-74
2022/05/29 04:53:08;;;;;;;;;3.00;3.00;;;;;13.87;49.95;101266.44;5112985;27;45054;-76
2022/05/29 04:55:33;;;;;;;;;3.00;1.00;;;;;13.69;50.06;101238.31;5109796;27;45569;-72
2022/05/29 04:57:59;;;;;;;;;2.00;2.00;;;;;13.90;49.24;101271.91;5103044;27;45533;-75
2022/05/29 05:00:24;;;;;;;;;5.00;4.00;;;;;13.98;49.62;101275.66;5104090;27;45283;-74
2022/05/29 05:02:50;;;;;;;;;5.00;2.00;;;;;13.83;48.93;101250.28;5095272;27;46098;-73
2022/05/29 05:05:16;;;;;;;;;2.33;1.00;;;;;13.95;49.86;101270.22;5095774;27;45409;-74
2022/05/29 05:07:42;;;;;;;;;3.00;3.00;;;;;13.74;49.66;101247.41;5102922;27;45345;-80
2022/05/29 05:10:11;;;;;;;;;2.25;2.25;;;;;13.94;49.29;101258.56;5102951;27;45275;-76
2022/05/29 05:12:40;;;;;;;;;1.00;1.00;;;;;14.07;49.48;101280.28;5099727;27;45788;-78
2022/05/29 05:15:08;;;;;;;;;4.00;2.00;;;;;14.10;49.66;101275.88;5097377;27;45400;-74
2022/05/29 05:17:33;;;;;;;;;3.00;1.00;;;;;13.76;49.58;101234.91;5100644;27;45179;-73
2022/05/29 05:19:59;;;;;;;;;1.67;1.67;;;;;13.96;50.00;101274.72;5101287;27;45335;-76
2022/05/29 05:22:24;;;;;;;;;3.00;2.00;;;;;13.88;49.76;101265.59;5100139;27;45395;-73
2022/05/29 05:24:50;;;;;;;;;1.00;1.00;;;;;13.85;50.45;101254.78;5097047;27;45578;-73
2022/05/29 05:27:15;;;;;;;;;2.75;1.75;;;;;13.62;49.67;101220.28;5111979;27;45153;-76
2022/05/29 05:29:42;;;;;;;;;4.25;3.00;;;;;13.85;50.05;101277.16;5111253;27;45461;-74
2022/05/29 05:32:07;;;;;;;;;4.00;1.75;;;;;13.85;50.33;101274.47;5112535;27;45052;-75
2022/05/29 05:34:33;;;;;;;;;3.00;3.00;;;;;13.86;50.05;101279.00;5122976;27;44893;-73
2022/05/29 05:36:58;;;;;;;;;3.00;3.00;;;;;13.93;49.90;101274.66;5131665;27;45120;-76
2022/05/29 05:39:24;;;;;;;;;2.50;1.75;;;;;13.55;49.89;101197.75;5131890;27;45049;-73
2022/05/29 05:41:49;;;;;;;;;2.00;2.00;;;;;14.01;49.80;101276.63;5119337;27;45424;-75
2022/05/29 05:44:15;;;;;;;;;2.25;1.75;;;;;13.99;49.29;101261.31;5110900;27;45056;-73
2022/05/29 05:46:49;;;;;;;;;4.00;4.00;;;;;14.07;49.48;101277.59;5110514;27;45374;-73
2022/05/29 05:49:18;;;;;;;;;5.25;3.50;;;;;13.90;49.78;101242.34;5111246;27;45462;-74
2022/05/29 05:51:44;;;;;;;;;2.00;2.00;;;;;14.15;49.64;101275.97;5114356;27;46599;-74
2022/05/29 05:54:11;;;;;;;;;2.00;2.00;;;;;13.89;49.45;101227.09;5123305;27;45471;-73
2022/05/29 05:56:40;;;;;;;;;3.25;2.00;;;;;14.18;49.32;101274.25;5129890;27;45009;-74
2022/05/29 05:59:06;;;;;;;;;4.00;1.75;;;;;13.69;49.76;101189.09;5123529;27;45302;-77
2022/05/29 06:01:31;;;;;;;;;2.50;1.00;;;;;14.21;49.24;101265.38;5124521;27;46701;-75
2022/05/29 06:03:56;;;;;;;;;1.75;1.75;;;;;14.26;48.89;101277.09;5124097;27;45483;-74
2022/05/29 06:06:22;;;;;;;;;4.00;2.00;;;;;14.33;48.94;101276.34;5112777;27;45563;-73
2022/05/29 06:08:47;;;;;;;;;4.00;3.00;;;;;14.32;48.28;101271.88;5106386;27;45474;-73
2022/05/29 06:11:12;;;;;;;;;2.00;2.00;;;;;14.30;48.82;101267.31;5103932;27;48642;-72
2022/05/29 06:13:38;;;;;;;;;1.00;1.00;;;;;14.23;48.32;101258.22;5113208;27;45974;-73
2022/05/29 06:16:04;;;;;;;;;2.67;1.00;;;;;14.14;48.28;101236.56;5111364;27;45295;-74
2022/05/29 06:18:29;;;;;;;;;1.33;1.33;;;;;14.35;48.45;101271.00;5100766;27;45490;-72
2022/05/29 06:21:00;;;;;;;;;3.00;2.00;;;;;14.42;48.18;101269.34;5117768;27;45250;-76
2022/05/29 06:23:26;;;;;;;;;3.75;2.50;;;;;14.38;48.25;101268.38;5119057;27;45556;-75
2022/05/29 06:25:52;;;;;;;;;1.00;1.00;;;;;14.36;48.49;101264.75;5120320;27;45329;-73
2022/05/29 06:28:17;;;;;;;;;3.00;1.67;;;;;14.32;47.97;101250.34;5132326;27;45049;-73
2022/05/29 06:30:44;;;;;;;;;1.67;1.67;;;;;14.43;48.02;101263.97;5125435;27;45681;-74
2022/05/29 06:33:10;;;;;;;;;1.33;1.00;;;;;14.23;47.84;101219.72;5111946;27;45579;-73
2022/05/29 06:35:36;;;;;;;;;1.00;1.00;;;;;14.34;48.23;101228.88;5119982;27;45174;-75
2022/05/29 06:38:01;;;;;;;;;4.00;1.00;;;;;14.64;48.10;101271.59;5108899;27;45452;-73
2022/05/29 06:40:26;;;;;;;;;4.00;2.33;;;;;14.74;47.96;101272.66;5117579;27;45487;-72
2022/05/29 06:42:52;;;;;;;;;4.00;4.00;;;;;14.86;47.75;101264.78;5102879;27;45060;-68
2022/05/29 06:45:17;;;;;;;;;4.00;1.67;;;;;14.60;47.20;101204.25;5120401;27;44970;-71
2022/05/29 06:47:42;;;;;;;;;1.33;1.33;;;;;14.93;47.15;101271.16;5116191;27;45069;-70
2022/05/29 06:50:09;;;;;;;;;2.00;2.00;;;;;14.92;47.06;101259.50;5114095;27;46099;-72
2022/05/29 06:52:35;;;;;;;;;2.00;2.00;;;;;14.89;46.88;101251.38;5118208;27;46469;-71
2022/05/29 06:55:02;;;;;;;;;3.00;3.00;;;;;15.00;46.87;101264.13;5110258;27;45240;-76
2022/05/29 06:57:36;;;;;;;;;3.67;2.67;;;;;14.90;46.89;101242.44;5111136;27;45413;-72
2022/05/29 07:08:30;;;;;;;;;3.00;1.33;;;;;14.79;45.01;101225.22;5131712;27;44949;-72
2022/05/29 07:10:59;;;;;;;;;2.67;1.00;;;;;15.04;45.00;101261.50;5106138;27;45381;-72
2022/05/29 07:13:24;;;;;;;;;4.67;1.33;;;;;15.13;45.16;101266.16;5096488;27;45439;-70
2022/05/29 07:15:50;;;;;;;;;1.33;1.00;;;;;15.24;44.58;101259.13;5099878;27;45397;-72
2022/05/29 07:18:15;;;;;;;;;1.00;1.00;;;;;15.29;44.49;101251.13;5104372;27;45620;-70
2022/05/29 07:20:40;;;;;;;;;5.67;3.00;;;;;15.27;44.62;101245.72;5124536;27;45566;-72
2022/05/29 07:23:06;;;;;;;;;0.67;0.67;;;;;15.33;44.21;101238.59;5121587;27;45428;-74
2022/05/29 07:25:31;;;;;;;;;2.33;1.33;;;;;15.51;43.74;101251.44;5118965;27;45416;-75
2022/05/29 07:27:57;;;;;;;;;3.00;1.00;;;;;15.58;42.73;101239.88;5129393;27;45024;-73
2022/05/29 07:30:22;;;;;;;;;1.00;1.00;;;;;15.55;42.29;101221.88;5125073;27;45590;-71
2022/05/29 07:32:48;;;;;;;;;4.00;1.00;;;;;15.76;42.97;101256.31;5113346;27;45044;-73
2022/05/29 07:35:16;;;;;;;;;1.67;1.00;;;;;15.74;41.96;101252.66;5111186;27;45318;-71
2022/05/29 07:37:42;;;;;;;;;2.00;1.00;;;;;15.72;41.36;101253.53;5101349;27;45420;-71
2022/05/29 07:40:08;;;;;;;;;1.00;1.00;;;;;15.44;41.16;101183.13;5120052;27;45215;-71
2022/05/29 07:45:18;;;;;;;;;2.00;2.00;;;;;15.86;40.86;101238.47;5116463;27;45178;-73
2022/05/29 07:47:44;;;;;;;;;3.33;1.00;;;;;15.99;40.20;101253.03;5120526;27;45250;-72
2022/05/29 07:50:14;;;;;;;;;1.00;1.00;;;;;16.10;40.11;101247.75;5111425;27;46942;-71
2022/05/29 07:52:39;;;;;;;;;0.33;0.33;;;;;16.11;39.53;101236.97;5109194;27;45670;-71
2022/05/29 07:55:05;;;;;;;;;1.33;0.67;;;;;16.30;39.59;101240.78;5111498;27;45300;-70
2022/05/29 07:57:31;;;;;;;;;0.33;0.33;;;;;16.19;38.94;101211.00;5111856;27;45015;-71
2022/05/29 07:59:56;;;;;;;;;2.00;1.00;;;;;16.09;38.51;101171.38;5119609;27;45131;-74
2022/05/29 08:02:22;;;;;;;;;0.67;0.67;;;;;16.34;37.49;101204.88;5121269;27;44970;-72
2022/05/29 08:04:47;;;;;;;;;0.67;0.67;;;;;16.62;38.27;101251.00;5115789;27;44938;-70
2022/05/29 08:07:17;;;;;;;;;1.67;1.67;;;;;16.57;38.41;101253.63;5110948;27;45443;-72
2022/05/29 08:09:45;;;;;;;;;0.67;0.67;;;;;16.38;38.67;101209.41;5115645;27;45723;-73
2022/05/29 08:12:11;;;;;;;;;2.00;0.67;;;;;16.40;38.79;101199.53;5116045;27;46351;-74
2022/05/29 08:14:36;;;;;;;;;0.00;0.00;;;;;16.62;38.55;101220.44;5125777;27;45269;-70
2022/05/29 08:17:03;;;;;;;;;0.67;0.67;;;;;16.66;38.97;101225.84;5121678;27;45184;-72
2022/05/29 08:19:29;;;;;;;;;2.67;1.67;;;;;16.55;39.11;101205.97;5117815;27;45599;-70
2022/05/29 08:21:54;;;;;;;;;1.33;0.67;;;;;16.71;39.31;101237.59;5119050;27;45159;-72
2022/05/29 08:32:34;;;;;;;;;0.00;0.00;;;;;16.25;38.87;101188.63;5117592;27;45093;-74
2022/05/29 08:35:00;;;;;;;;;1.67;0.00;;;;;16.44;38.98;101204.97;5114126;27;45167;-70
2022/05/29 08:37:25;;;;;;;;;0.33;0.33;;;;;16.52;39.40;101214.03;5113382;27;45236;-70
2022/05/29 08:39:51;;;;;;;;;3.33;0.67;;;;;16.63;39.53;101224.91;5113383;27;45138;-72
2022/05/29 08:42:18;;;;;;;;;1.00;0.33;;;;;16.63;39.13;101225.84;5120993;27;45015;-75
2022/05/29 08:44:48;;;;;;;;;0.67;0.67;;;;;16.55;39.42;101219.47;5113619;27;45101;-75
2022/05/29 08:47:15;;;;;;;;;1.00;1.00;;;;;16.36;39.83;101183.31;5111675;27;45509;-74
2022/05/29 08:49:45;;;;;;;;;3.00;1.00;;;;;16.62;39.54;101218.63;5111567;27;45435;-71
2022/05/29 08:52:31;;;;;;;;;0.33;0.33;;;;;16.81;38.57;101216.97;5121052;27;45272;-71
2022/05/29 08:55:02;;;;;;;;;1.00;1.00;;;;;16.92;38.64;101201.81;5093294;27;45157;-73
2022/05/29 08:57:46;;;;;;;;;2.00;0.67;;;;;16.98;38.21;101213.53;5112724;27;45287;-76
2022/05/29 09:00:34;;;;;;;;;2.33;1.00;;;;;16.93;37.97;101209.03;5107644;27;47823;-72
2022/05/29 09:03:20;;;;;;;;;1.67;1.67;;;;;16.74;38.01;101178.25;5101766;27;45299;-74
2022/05/29 09:06:01;;;;;;;;;3.67;2.00;;;;;17.10;39.21;101208.25;5131123;27;45352;-77
2022/05/29 09:08:40;;;;;;;;;1.67;1.67;;;;;17.23;37.56;101202.03;5132099;27;45067;-78
2022/05/29 09:11:16;;;;;;;;;3.00;1.67;;;;;17.28;37.55;101181.34;5125902;27;45717;-74
2022/05/29 09:13:49;;;;;;;;;1.33;1.33;;;;;17.59;37.49;101186.03;5120378;27;45135;-72
2022/05/29 09:16:18;;;;;;;;;1.00;1.00;;;;;17.79;36.37;101196.91;5116740;27;45462;-75
2022/05/29 09:19:02;;;;;;;;;1.33;0.67;;;;;17.62;35.32;101180.59;5122762;27;45240;-71
2022/05/29 09:21:41;;;;;;;;;0.00;0.00;;;;;17.72;35.02;101192.34;5115434;27;45453;-78
2022/05/29 09:24:13;;;;;;;;;1.00;1.00;;;;;17.72;35.91;101170.75;5112913;27;45285;-77
2022/05/29 09:26:39;;;;;;;;;2.33;1.00;;;;;18.07;35.87;101189.81;5116455;27;45064;-75
2022/05/29 09:29:05;;;;;;;;;2.67;0.00;;;;;18.23;35.20;101183.56;5118782;27;45161;-69
2022/05/29 09:31:32;;;;;;;;;0.00;0.00;;;;;18.42;34.20;101173.63;5123963;27;45307;-76
2022/05/29 09:33:59;;;;;;;;;1.00;1.00;;;;;18.57;32.71;101170.03;5128492;27;45078;-75
2022/05/29 09:36:28;;;;;;;;;0.00;0.00;;;;;18.69;32.26;101173.66;5123195;27;45000;-70
2022/05/29 09:39:19;;;;;;;;;1.00;1.00;;;;;18.83;32.42;101154.72;5130368;27;45489;-73
2022/05/29 09:41:50;;;;;;;;;1.67;1.00;;;;;18.91;32.95;101148.41;5121609;27;45532;-72
2022/05/29 09:44:22;;;;;;;;;2.00;1.00;;;;;18.90;32.99;101116.81;5120547;27;45105;-77
2022/05/29 09:46:50;;;;;;;;;2.00;1.00;;;;;19.25;32.52;101159.16;5126253;27;45159;-74
2022/05/29 09:49:41;;;;;;;;;3.00;2.00;;;;;19.08;32.60;101112.25;5119957;27;45107;-71
2022/05/29 09:52:19;;;;;;;;;0.33;0.33;;;;;19.39;32.11;101169.97;5123237;27;45931;-76
2022/05/29 09:55:03;;;;;;;;;0.00;0.00;;;;;19.33;32.10;101161.84;5118497;27;45074;-78
2022/05/29 09:57:51;;;;;;;;;2.67;2.00;;;;;19.35;32.70;101162.72;5117334;27;45173;-77
2022/05/29 10:00:28;;;;;;;;;5.67;3.67;;;;;19.32;33.08;101163.66;5122043;27;45024;-74
2022/05/29 10:02:54;;;;;;;;;3.67;2.00;;;;;19.28;33.17;101159.13;5124706;27;45943;-71
2022/05/29 10:05:33;;;;;;;;;2.00;1.00;;;;;19.25;33.00;101152.84;5109980;27;45033;-75
2022/05/29 10:08:16;;;;;;;;;2.00;1.00;;;;;19.24;33.18;101153.75;5119642;27;45117;-77
2022/05/29 10:10:41;;;;;;;;;1.00;1.00;;;;;19.00;33.50;101122.22;5116293;27;45141;-75
2022/05/29 10:13:06;;;;;;;;;2.00;0.33;;;;;19.19;33.21;101161.91;5119947;27;45531;-79
2022/05/29 10:15:36;;;;;;;;;2.67;2.00;;;;;19.12;33.20;101141.13;5123354;27;45956;-76
2022/05/29 10:18:27;;;;;;;;;2.00;2.00;;;;;19.21;32.86;101154.66;5119115;27;45231;-73
2022/05/29 10:20:55;;;;;;;;;2.00;2.00;;;;;19.07;32.44;101133.03;5110087;27;45281;-74
2022/05/29 10:23:36;;;;;;;;;2.00;0.33;;;;;19.00;31.73;101114.09;5117628;27;45773;-79
2022/05/29 10:26:09;;;;;;;;;1.00;1.00;;;;;18.94;31.65;101118.63;5129905;27;45226;-76
2022/05/29 10:28:38;;;;;;;;;1.33;1.33;;;;;19.04;32.21;101142.94;5121709;27;45211;-74
2022/05/29 10:31:12;;;;;;;;;0.00;0.00;;;;;18.96;32.49;101146.59;5132835;27;45491;-72
2022/05/29 10:33:37;;;;;;;;;2.00;2.00;;;;;18.63;31.53;101114.09;5120191;27;45861;-79
2022/05/29 10:36:15;;;;;;;;;3.33;3.33;;;;;18.71;30.97;101145.69;5121080;27;45019;-76
2022/05/29 10:38:42;;;;;;;;;4.67;3.33;;;;;18.56;31.56;101119.53;5117838;27;45225;-69
2022/05/29 10:41:10;;;;;;;;;5.33;3.33;;;;;18.58;31.29;101131.25;5115515;27;45235;-75
2022/05/29 10:43:51;;;;;;;;;1.00;1.00;;;;;18.66;30.91;101136.69;5112384;27;46339;-70
2022/05/29 10:46:39;;;;;;;;;4.00;4.00;;;;;18.61;31.21;101116.84;5113967;27;45189;-78
2022/05/29 10:51:51;;;;;;;;;23.75;19.50;;;;;18.79;31.81;101129.41;5127364;27;45134;-77
2022/05/29 10:54:22;;;;;;;;;1.00;1.00;;;;;18.81;31.75;101122.22;5122287;27;45369;-75
2022/05/29 10:57:21;;;;;;;;;1.00;1.00;;;;;18.76;32.10;101119.53;5124770;27;44953;-79
2022/05/29 11:00:04;;;;;;;;;7.67;6.33;;;;;18.73;31.98;101115.91;5130533;27;45428;-75
2022/05/29 11:05:48;;;;;;;;;2.33;1.00;;;;;18.63;31.99;101112.31;5125359;27;45473;-72
2022/05/29 11:08:24;;;;;;;;;2.00;0.67;;;;;18.56;32.24;101110.50;5118863;27;45082;-72
2022/05/29 11:11:08;;;;;;;;;5.00;2.00;;;;;18.61;32.21;101103.31;5121314;27;45108;-74
2022/05/29 11:13:54;;;;;;;;;0.00;0.00;;;;;18.65;32.30;101112.31;5120953;27;45303;-76
2022/05/29 11:16:42;;;;;;;;;0.00;0.00;;;;;18.76;32.53;101105.09;5134588;27;45396;-72
2022/05/29 11:19:10;;;;;;;;;3.00;1.00;;;;;18.79;31.80;101105.97;5099954;27;45268;-76
2022/05/29 11:21:45;;;;;;;;;6.00;3.00;;;;;18.71;32.01;101077.09;5114931;27;45075;-74
2022/05/29 11:24:25;;;;;;;;;3.67;1.00;;;;;18.67;31.37;101084.34;5122874;27;45063;-77
2022/05/29 11:26:56;;;;;;;;;1.00;1.00;;;;;18.76;31.78;101095.16;5122421;27;45222;-76
2022/05/29 11:30:09;;;;;;;;;1.00;1.00;;;;;18.86;31.59;101096.06;5116692;27;44999;-75
2022/05/29 11:32:44;;;;;;;;;1.00;1.00;;;;;18.89;31.35;101090.66;5112134;27;45161;-76
2022/05/29 11:35:21;;;;;;;;;4.00;2.00;;;;;18.90;31.09;101078.91;5118387;27;45141;-78
2022/05/29 11:38:03;;;;;;;;;3.00;2.00;;;;;19.03;30.49;101087.00;5117330;27;46059;-74
2022/05/29 11:40:39;;;;;;;;;1.00;1.00;;;;;18.90;29.96;101057.25;5111476;27;45173;-75
2022/05/29 11:43:25;;;;;;;;;2.00;2.00;;;;;19.15;29.94;101077.03;5124733;27;45358;-71
2022/05/29 11:51:55;;;;;;;;;1.67;1.67;;;;;19.22;29.33;101028.22;5125486;27;45389;-73
2022/05/29 11:54:23;;;;;;;;;2.00;2.00;;;;;19.62;29.36;101058.75;5130721;27;45331;-72
2022/05/29 11:57:47;;;;;;;;;0.33;0.33;;;;;19.77;29.10;101051.47;5130856;27;45083;-74
2022/05/29 12:00:57;;;;;;;;;2.67;1.33;;;;;19.98;28.09;101037.75;5016918;28;45596;-72
2022/05/29 12:03:49;;;;;;;;;4.33;2.00;;;;;20.01;28.30;101043.16;5111134;27;45029;-75
2022/05/29 12:06:30;;;;;;;;;2.67;2.33;;;;;19.79;28.52;100990.00;5125905;27;45335;-75
2022/05/29 12:09:14;;;;;;;;;2.33;1.67;;;;;20.01;28.63;101028.66;5130571;27;45211;-71
2022/05/29 12:11:47;;;;;;;;;5.00;3.33;;;;;20.00;28.64;101018.75;5128084;27;45648;-75
2022/05/29 12:14:17;;;;;;;;;4.00;2.00;;;;;19.92;28.46;101023.34;5117584;27;45128;-70
2022/05/29 12:16:45;;;;;;;;;5.00;1.00;;;;;19.83;27.89;101011.66;5124122;27;45165;-76
2022/05/29 12:19:17;;;;;;;;;3.67;0.67;;;;;19.96;27.75;101017.84;5110847;27;45357;-72
2022/05/29 12:22:06;;;;;;;;;0.33;0.00;;;;;20.04;27.62;101015.97;5123768;27;45249;-75
2022/05/29 12:24:35;;;;;;;;;1.33;1.00;;;;;20.13;27.28;101005.97;5130683;27;45159;-75